Terminal Aerodrome Forecast
Issued by NWS

Home | Current Version | Previous Version | Text Only | Print | Product List | Glossary On
Versions: 1 2 3 4 5 6 7 8 9 10 11 12 13 14 15 16 17 18 19 20 21 22
000
FTUS43 KAPX 181138
TAFAPN
TAF
KAPN 181138Z 1812/1912 VRB03KT 6SM BR OVC006
     FM181800 23007KT P6SM BKN022
     FM190000 23006KT P6SM BKN020 WS010/24030KT
     FM190200 22007KT P6SM BKN025 WS010/24030KT
     FM190600 21009KT P6SM OVC020 WS010/24035KT
     FM190900 23011G19KT P6SM BKN060 WS010/25035KT=

USA.gov is the U.S. government's official web portal to all federal, state and local government web resources and services.